Time;durP1;ratioP1;P1;durP2;ratioP2;P2;SDS_P1;SDS_P2;PMS_P1;PMS_P2;Temp;Humidity;BMP_temperature;BMP_pressure;BME280_temperature;BME280_humidity;BME280_pressure;Samples;Min_cycle;Max_cycle;Signal;HPM_P1;HPM_P2
2022/01/28 00:00:32;;;;;;;;;;;;;;;14.21;57.20;102603.81;1018045;29;667;-62
2022/01/28 00:01:33;;;;;;;;;;;;;;;14.18;57.82;102612.00;1018233;29;895;-60
2022/01/28 00:03:14;;;;;;;;;;;;;;;14.18;57.13;102612.88;1018515;29;769;-61
2022/01/28 00:04:13;;;;;;;;;;;;;;;14.19;57.40;102619.97;1018455;29;1017;-60
2022/01/28 00:05:03;;;;;;;;;;;;;;;14.19;56.98;102613.75;1016718;28;1609;-60
2022/01/28 00:05:54;;;;;;;;;;;;;;;14.19;56.79;102619.09;1013633;29;951;-61
2022/01/28 00:06:44;;;;;;;;;;;;;;;14.20;57.34;102620.84;1015865;29;1668;-62
2022/01/28 00:07:35;;;;;;;;;;;;;;;14.20;56.76;102624.38;1018444;28;934;-62
2022/01/28 00:08:25;;;;;;;;;;;;;;;14.21;56.96;102627.94;1018302;29;768;-61
2022/01/28 00:09:15;;;;;;;;;;;;;;;14.21;57.10;102623.44;1018221;29;688;-61
2022/01/28 00:10:06;;;;;;;;;;;;;;;14.21;56.78;102622.56;1018174;29;717;-60
2022/01/28 00:10:56;;;;;;;;;;;;;;;14.20;57.67;102619.03;1018199;29;812;-61
2022/01/28 00:11:47;;;;;;;;;;;;;;;14.20;57.08;102619.03;1014658;29;777;-60
2022/01/28 00:13:01;;;;;;;;;;;;;;;14.21;57.83;102628.81;1014342;29;647;-61
2022/01/28 00:13:57;;;;;;;;;;;;;;;14.21;57.59;102625.25;1014768;29;929;-61
2022/01/28 00:15:04;;;;;;;;;;;;;;;14.19;57.74;102630.69;1014319;29;701;-62
2022/01/28 00:19:17;;;;;;;;;;;;;;;14.20;56.86;102626.19;1010899;29;712;-62
2022/01/28 00:36:30;;;;;;;;;;;;;;;14.16;57.11;102633.53;1014247;29;998;-62
2022/01/28 00:36:31;;;;;;;;;;;;;;;14.15;57.99;102629.13;1014275;29;619;-61
2022/01/28 00:37:01;;;;;;;;;;;;;;;14.12;57.24;102650.75;1017780;29;1129;-62
2022/01/28 00:38:48;;;;;;;;;;;;;;;14.10;57.30;102657.13;1018062;29;891;-61
2022/01/28 00:39:38;;;;;;;;;;;;;;;14.10;57.55;102657.13;1018202;29;764;-62
2022/01/28 00:40:29;;;;;;;;;;;;;;;14.11;57.14;102656.19;1018058;29;755;-62
2022/01/28 00:41:19;;;;;;;;;;;;;;;14.10;57.25;102658.00;1013741;29;658;-61
2022/01/28 00:42:10;;;;;;;;;;;;;;;14.10;57.38;102662.50;1014259;29;761;-62
2022/01/28 00:43:00;;;;;;;;;;;;;;;14.08;57.46;102659.88;1014181;29;957;-62
2022/01/28 00:43:50;;;;;;;;;;;;;;;14.09;57.47;102655.38;1014253;29;736;-62
2022/01/28 00:44:41;;;;;;;;;;;;;;;14.11;57.05;102656.19;1014302;29;635;-62
2022/01/28 00:45:31;;;;;;;;;;;;;;;14.10;57.30;102658.00;1014443;29;813;-62
2022/01/28 00:46:22;;;;;;;;;;;;;;;14.10;57.84;102658.00;1014899;28;670;-62
2022/01/28 00:47:12;;;;;;;;;;;;;;;14.11;57.61;102657.06;1015229;28;807;-62
2022/01/28 00:48:03;;;;;;;;;;;;;;;14.11;57.68;102664.22;1014206;29;679;-62
2022/01/28 00:48:53;;;;;;;;;;;;;;;14.09;57.98;102661.63;1014188;29;764;-62
2022/01/28 00:49:43;;;;;;;;;;;;;;;14.09;57.09;102653.59;1013233;29;733;-62
2022/01/28 00:50:34;;;;;;;;;;;;;;;14.10;57.62;102651.75;1014614;29;615;-62
2022/01/28 00:51:24;;;;;;;;;;;;;;;14.11;57.73;102657.06;1014580;29;893;-62
2022/01/28 00:52:15;;;;;;;;;;;;;;;14.09;58.00;102661.63;1014195;29;674;-61
2022/01/28 00:53:05;;;;;;;;;;;;;;;14.09;57.57;102656.25;1015220;28;733;-61
2022/01/28 00:53:55;;;;;;;;;;;;;;;14.08;57.53;102662.56;1013745;29;716;-61
2022/01/28 00:54:46;;;;;;;;;;;;;;;14.06;57.20;102653.72;1013729;29;1895;-61
2022/01/28 00:55:36;;;;;;;;;;;;;;;14.06;57.86;102659.09;1014694;29;877;-61
2022/01/28 00:56:27;;;;;;;;;;;;;;;14.07;57.34;102660.81;1014657;29;705;-61
2022/01/28 00:57:17;;;;;;;;;;;;;;;14.08;56.99;102664.38;1014683;29;700;-62
2022/01/28 00:58:07;;;;;;;;;;;;;;;14.08;57.33;102661.69;1014662;29;1964;-62
2022/01/28 00:58:58;;;;;;;;;;;;;;;14.06;57.67;102661.78;1014810;29;788;-61
2022/01/28 00:59:48;;;;;;;;;;;;;;;14.05;57.94;102664.53;1014569;29;916;-60
2022/01/28 01:00:39;;;;;;;;;;;;;;;14.03;57.70;102661.06;1014639;29;702;-61
2022/01/28 01:01:29;;;;;;;;;;;;;;;14.02;57.59;102660.19;1014756;29;857;-61
2022/01/28 01:02:20;;;;;;;;;;;;;;;14.02;57.27;102664.69;1014641;29;771;-62
2022/01/28 01:03:10;;;;;;;;;;;;;;;14.01;57.04;102669.16;1014737;29;916;-62
2022/01/28 01:04:01;;;;;;;;;;;;;;;14.00;57.27;102670.09;1014537;29;1208;-62
2022/01/28 01:04:51;;;;;;;;;;;;;;;13.98;58.12;102669.31;1015088;29;1747;-61
2022/01/28 01:05:41;;;;;;;;;;;;;;;13.97;57.93;102672.97;1014690;29;852;-61
2022/01/28 01:06:32;;;;;;;;;;;;;;;13.96;58.24;102668.56;1014710;29;890;-61
2022/01/28 01:07:22;;;;;;;;;;;;;;;13.96;57.71;102668.56;1014745;29;693;-61
2022/01/28 01:08:13;;;;;;;;;;;;;;;13.96;57.99;102665.88;1014664;29;822;-61
2022/01/28 01:09:03;;;;;;;;;;;;;;;13.97;57.23;102667.63;1014797;29;725;-61
2022/01/28 01:09:54;;;;;;;;;;;;;;;13.98;57.30;102669.31;1014666;29;774;-61
2022/01/28 01:10:44;;;;;;;;;;;;;;;14.00;57.62;102670.09;1014746;29;607;-61
2022/01/28 01:11:34;;;;;;;;;;;;;;;14.00;57.63;102672.78;1014744;29;599;-61
2022/01/28 01:12:27;;;;;;;;;;;;;;;14.00;57.74;102667.44;1014897;29;850;-61
2022/01/28 01:13:17;;;;;;;;;;;;;;;13.99;56.89;102673.72;1014930;29;1847;-62
2022/01/28 01:14:08;;;;;;;;;;;;;;;14.01;57.38;102671.84;1018001;29;807;-62
2022/01/28 01:14:58;;;;;;;;;;;;;;;14.01;57.93;102668.31;1018024;29;767;-61
2022/01/28 01:15:54;;;;;;;;;;;;;;;13.99;57.13;102671.06;1018042;29;704;-61
2022/01/28 01:18:11;;;;;;;;;;;;;;;14.00;57.82;102677.28;1018053;29;715;-61
2022/01/28 01:19:15;;;;;;;;;;;;;;;13.98;57.40;102680.03;1018281;29;795;-61
2022/01/28 01:21:07;;;;;;;;;;;;;;;13.95;57.89;102674.84;1018816;29;780;-61
2022/01/28 01:22:00;;;;;;;;;;;;;;;13.94;58.01;102673.13;1018257;29;706;-62
2022/01/28 01:23:04;;;;;;;;;;;;;;;13.94;58.00;102672.25;1018249;29;778;-60
2022/01/28 01:23:56;;;;;;;;;;;;;;;13.92;57.81;102669.66;1014406;29;810;-62
2022/01/28 01:24:53;;;;;;;;;;;;;;;13.93;57.54;102670.50;1014814;29;858;-61
2022/01/28 01:25:51;;;;;;;;;;;;;;;13.93;57.73;102676.75;1014869;29;842;-61
2022/01/28 01:26:41;;;;;;;;;;;;;;;13.93;57.63;102667.84;1014771;29;878;-61
2022/01/28 01:27:32;;;;;;;;;;;;;;;13.93;58.06;102662.47;1013828;29;798;-62
2022/01/28 01:28:28;;;;;;;;;;;;;;;13.92;57.92;102669.66;1014991;29;642;-61
2022/01/28 01:29:21;;;;;;;;;;;;;;;13.92;57.78;102664.28;1015515;29;635;-61
2022/01/28 01:30:13;;;;;;;;;;;;;;;13.92;57.40;102663.41;1014931;29;848;-61
2022/01/28 01:31:04;;;;;;;;;;;;;;;13.94;57.90;102666.88;1014836;29;957;-61
2022/01/28 01:32:02;;;;;;;;;;;;;;;13.95;57.12;102664.13;1014891;29;763;-61
2022/01/28 01:32:52;;;;;;;;;;;;;;;13.94;57.47;102667.75;1014746;29;782;-61
2022/01/28 01:33:49;;;;;;;;;;;;;;;13.94;57.87;102666.88;1014753;29;729;-63
2022/01/28 01:34:39;;;;;;;;;;;;;;;13.93;57.13;102675.88;1014914;29;674;-62
2022/01/28 01:35:30;;;;;;;;;;;;;;;13.89;58.02;102675.16;1015499;29;2044;-62
2022/01/28 01:36:20;;;;;;;;;;;;;;;13.88;57.45;102681.44;1015416;29;772;-62
2022/01/28 01:37:12;;;;;;;;;;;;;;;13.85;57.52;102681.59;1014779;29;850;-62
2022/01/28 01:38:02;;;;;;;;;;;;;;;13.84;57.52;102677.19;1015437;29;1890;-62
2022/01/28 01:38:53;;;;;;;;;;;;;;;13.83;57.68;102675.44;1014851;29;657;-62
2022/01/28 01:39:43;;;;;;;;;;;;;;;13.82;58.19;102679.06;1015407;29;720;-63
2022/01/28 01:40:42;;;;;;;;;;;;;;;13.82;57.73;102684.44;1015200;29;693;-62
2022/01/28 01:41:37;;;;;;;;;;;;;;;13.83;57.49;102695.06;1015208;29;1358;-62
2022/01/28 01:45:26;;;;;;;;;;;;;;;13.82;57.49;102705.88;1010973;29;736;-62
2022/01/28 01:46:20;;;;;;;;;;;;;;;13.82;57.08;102705.88;1014873;29;698;-62
2022/01/28 01:52:38;;;;;;;;;;;;;;;13.82;57.69;102700.50;1018646;29;655;-62
2022/01/28 01:53:28;;;;;;;;;;;;;;;13.82;57.05;102700.50;1018772;29;686;-63
2022/01/28 01:54:19;;;;;;;;;;;;;;;13.82;57.35;102705.88;1018688;29;785;-62
2022/01/28 01:55:09;;;;;;;;;;;;;;;13.81;57.43;102704.13;1021546;29;802;-63
2022/01/28 01:55:59;;;;;;;;;;;;;;;13.83;57.81;102702.25;1022051;29;870;-63
2022/01/28 01:56:50;;;;;;;;;;;;;;;13.83;57.08;102712.97;1022064;29;716;-63
2022/01/28 01:57:40;;;;;;;;;;;;;;;13.83;57.67;102703.09;1021967;29;783;-63
2022/01/28 01:58:31;;;;;;;;;;;;;;;13.84;57.03;102704.84;1022114;29;717;-63
2022/01/28 01:59:22;;;;;;;;;;;;;;;13.82;57.57;102701.38;1022031;29;816;-62
2022/01/28 02:00:12;;;;;;;;;;;;;;;13.82;56.91;102709.41;1018606;29;1725;-62
2022/01/28 02:01:03;;;;;;;;;;;;;;;13.83;57.72;102712.97;1018619;29;733;-62
2022/01/28 02:01:53;;;;;;;;;;;;;;;13.83;57.77;102721.00;1018399;29;1883;-63
2022/01/28 02:02:43;;;;;;;;;;;;;;;13.82;57.65;102713.91;1018707;29;669;-62
2022/01/28 02:03:34;;;;;;;;;;;;;;;13.81;57.42;102714.84;1019045;29;694;-63
2022/01/28 02:04:24;;;;;;;;;;;;;;;13.83;56.95;102718.31;1018627;29;925;-63
2022/01/28 02:05:15;;;;;;;;;;;;;;;13.83;57.11;102719.19;1018674;29;772;-62
2022/01/28 02:06:05;;;;;;;;;;;;;;;13.82;57.35;102722.81;1018807;29;741;-63
2022/01/28 02:06:56;;;;;;;;;;;;;;;13.82;57.21;102721.94;1018540;29;743;-62
2022/01/28 02:07:46;;;;;;;;;;;;;;;13.83;56.94;102721.88;1018737;29;813;-62
2022/01/28 02:08:36;;;;;;;;;;;;;;;13.81;56.99;102723.75;1019035;28;909;-62
2022/01/28 02:09:27;;;;;;;;;;;;;;;13.81;57.63;102720.19;1018672;29;662;-62
2022/01/28 02:10:17;;;;;;;;;;;;;;;13.81;57.35;102723.75;1018678;29;832;-62
2022/01/28 02:11:08;;;;;;;;;;;;;;;13.82;57.21;102719.25;1018590;29;1351;-61
2022/01/28 02:11:58;;;;;;;;;;;;;;;13.83;57.74;102727.22;1017916;29;1765;-62
2022/01/28 02:12:48;;;;;;;;;;;;;;;13.83;57.01;102729.03;1018660;29;881;-61
2022/01/28 02:13:39;;;;;;;;;;;;;;;13.83;57.76;102721.00;1018713;29;655;-61
2022/01/28 02:14:30;;;;;;;;;;;;;;;13.83;57.12;102731.72;1018036;29;925;-60
2022/01/28 02:15:20;;;;;;;;;;;;;;;13.83;57.05;102729.03;1018490;29;836;-60
2022/01/28 02:16:11;;;;;;;;;;;;;;;13.83;57.48;102731.72;1018419;29;816;-60
2022/01/28 02:17:02;;;;;;;;;;;;;;;13.82;57.49;102733.53;1018603;29;959;-60
2022/01/28 02:17:52;;;;;;;;;;;;;;;13.80;57.36;102731.88;1015243;29;707;-60
2022/01/28 02:18:43;;;;;;;;;;;;;;;13.80;57.79;102734.53;1013633;29;865;-60
2022/01/28 02:19:33;;;;;;;;;;;;;;;13.79;57.28;102733.66;1017778;29;639;-60
2022/01/28 02:20:38;;;;;;;;;;;;;;;13.79;56.97;102724.81;1018671;29;681;-60
2022/01/28 02:21:28;;;;;;;;;;;;;;;13.79;57.61;102732.84;1017356;29;1640;-60
2022/01/28 02:22:20;;;;;;;;;;;;;;;13.80;57.08;102738.09;1014051;29;798;-60
2022/01/28 02:23:11;;;;;;;;;;;;;;;13.78;57.71;102728.41;1015723;29;2123;-60
2022/01/28 02:24:04;;;;;;;;;;;;;;;13.78;57.80;102731.97;1019080;28;750;-60
2022/01/28 02:24:55;;;;;;;;;;;;;;;13.78;57.28;102728.41;1018825;28;736;-60
2022/01/28 02:25:45;;;;;;;;;;;;;;;13.77;57.42;102735.59;1017119;29;723;-60
2022/01/28 02:26:37;;;;;;;;;;;;;;;13.77;57.29;102740.06;1017646;29;1003;-60
2022/01/28 02:27:27;;;;;;;;;;;;;;;13.75;57.12;102741.97;1019072;28;871;-61
2022/01/28 02:28:21;;;;;;;;;;;;;;;13.74;57.79;102729.50;1017424;29;740;-59
2022/01/28 02:29:14;;;;;;;;;;;;;;;13.74;57.71;102737.53;1018977;28;761;-61
2022/01/28 02:30:06;;;;;;;;;;;;;;;13.74;57.34;102746.44;1017318;29;753;-61
2022/01/28 02:30:57;;;;;;;;;;;;;;;13.74;56.97;102740.22;1019171;28;795;-61
2022/01/28 02:31:47;;;;;;;;;;;;;;;13.73;57.55;102743.84;1016893;29;1865;-61
2022/01/28 02:32:38;;;;;;;;;;;;;;;13.74;57.06;102745.56;1018461;29;748;-60
2022/01/28 02:33:29;;;;;;;;;;;;;;;13.73;57.33;102751.88;1018049;29;814;-60
2022/01/28 02:34:19;;;;;;;;;;;;;;;13.74;57.13;102750.94;1018493;29;911;-60
2022/01/28 02:35:10;;;;;;;;;;;;;;;13.74;57.36;102756.28;1018618;29;731;-61
2022/01/28 02:36:06;;;;;;;;;;;;;;;13.74;57.43;102758.97;1018070;29;706;-61
2022/01/28 02:36:56;;;;;;;;;;;;;;;13.75;57.63;102752.69;1018045;29;761;-60
2022/01/28 02:37:47;;;;;;;;;;;;;;;13.77;57.54;102762.38;1017951;29;907;-60
2022/01/28 02:38:37;;;;;;;;;;;;;;;13.78;56.83;102766.81;1018562;29;852;-61
2022/01/28 02:39:29;;;;;;;;;;;;;;;13.77;57.47;102765.06;1018536;29;716;-61
2022/01/28 02:40:19;;;;;;;;;;;;;;;13.76;57.30;102770.50;1017952;29;834;-60
2022/01/28 02:41:09;;;;;;;;;;;;;;;13.76;57.82;102765.13;1018427;29;916;-59
2022/01/28 02:42:12;;;;;;;;;;;;;;;13.75;57.51;102764.25;1018966;28;759;-61
2022/01/28 02:43:17;;;;;;;;;;;;;;;13.77;57.02;102774.91;1017928;29;836;-62
2022/01/28 02:44:17;;;;;;;;;;;;;;;13.76;56.81;102779.41;1013954;29;902;-62
2022/01/28 02:45:08;;;;;;;;;;;;;;;13.77;57.47;102772.22;1014562;29;759;-62
2022/01/28 02:46:06;;;;;;;;;;;;;;;13.76;57.31;102774.03;1014431;29;788;-62
2022/01/28 02:47:00;;;;;;;;;;;;;;;13.76;57.85;102781.22;1014081;29;1011;-61
2022/01/28 02:47:56;;;;;;;;;;;;;;;13.75;57.90;102772.31;1014794;29;738;-61
2022/01/28 02:49:00;;;;;;;;;;;;;;;13.75;56.98;102779.47;1014670;29;815;-61
2022/01/28 02:49:52;;;;;;;;;;;;;;;13.74;56.96;102777.72;1014557;29;717;-61
2022/01/28 02:50:52;;;;;;;;;;;;;;;13.74;57.72;102775.91;1014531;29;735;-61
2022/01/28 02:51:43;;;;;;;;;;;;;;;13.73;57.63;102773.31;1014622;29;1883;-61
2022/01/28 02:52:44;;;;;;;;;;;;;;;13.72;57.65;102774.25;1014606;29;793;-61
2022/01/28 02:53:41;;;;;;;;;;;;;;;13.72;57.85;102779.63;1014958;29;702;-62
2022/01/28 02:54:39;;;;;;;;;;;;;;;13.71;57.43;102772.50;1015111;29;772;-61
2022/01/28 02:55:35;;;;;;;;;;;;;;;13.72;57.66;102784.97;1017706;29;2354;-62
2022/01/28 02:56:36;;;;;;;;;;;;;;;13.71;57.06;102777.88;1018949;28;1040;-61
2022/01/28 02:57:27;;;;;;;;;;;;;;;13.71;57.67;102775.19;1019256;29;716;-61
2022/01/28 02:58:20;;;;;;;;;;;;;;;13.70;56.97;102776.13;1017817;29;1891;-60
2022/01/28 02:59:11;;;;;;;;;;;;;;;13.70;57.24;102781.50;1019030;29;796;-60
2022/01/28 03:00:01;;;;;;;;;;;;;;;13.70;57.43;102776.13;1017230;29;803;-61
2022/01/28 03:00:51;;;;;;;;;;;;;;;13.70;57.42;102776.13;1017398;29;808;-60
2022/01/28 03:01:42;;;;;;;;;;;;;;;13.69;57.39;102780.63;1016819;29;1696;-61
2022/01/28 03:02:32;;;;;;;;;;;;;;;13.71;57.62;102785.91;1018325;29;774;-61
2022/01/28 03:03:23;;;;;;;;;;;;;;;13.71;57.43;102781.41;1018460;29;651;-61
2022/01/28 03:04:36;;;;;;;;;;;;;;;13.73;57.12;102789.38;1017985;29;783;-62
2022/01/28 03:05:31;;;;;;;;;;;;;;;13.73;57.87;102787.59;1018441;29;646;-61
2022/01/28 03:06:21;;;;;;;;;;;;;;;13.73;57.74;102792.06;1017890;29;799;-61
2022/01/28 03:07:12;;;;;;;;;;;;;;;13.72;57.67;102793.00;1018375;29;808;-61
2022/01/28 03:08:04;;;;;;;;;;;;;;;13.71;56.99;102791.25;1018509;29;720;-60
2022/01/28 03:09:17;;;;;;;;;;;;;;;13.68;57.75;102788.72;1017837;29;887;-61
2022/01/28 03:12:14;;;;;;;;;;;;;;;13.68;57.15;102784.25;1018431;29;701;-64
2022/01/28 03:15:17;;;;;;;;;;;;;;;13.69;57.28;102785.97;1014287;29;742;-62
2022/01/28 03:16:14;;;;;;;;;;;;;;;13.70;57.89;102785.03;1014529;29;770;-62
2022/01/28 03:17:26;;;;;;;;;;;;;;;13.71;57.07;102793.94;1014361;29;818;-63
2022/01/28 03:18:25;;;;;;;;;;;;;;;13.68;57.65;102794.09;1014389;29;1895;-62
2022/01/28 03:19:19;;;;;;;;;;;;;;;13.69;57.68;102794.00;1013851;29;905;-63
2022/01/28 03:20:36;;;;;;;;;;;;;;;13.68;57.39;102794.09;1014470;29;694;-67
2022/01/28 03:22:22;;;;;;;;;;;;;;;13.69;57.31;102802.06;1015266;28;685;-68
2022/01/28 03:23:13;;;;;;;;;;;;;;;13.68;57.68;102794.97;1010705;29;773;-66
2022/01/28 18:58:51;;;;;;;;;;;;;;;15.07;56.98;102754.00;1026468;23;2860;-60
2022/01/28 18:59:42;;;;;;;;;;;;;;;15.07;57.40;102747.75;1022954;29;1406;-60
2022/01/28 19:00:33;;;;;;;;;;;;;;;15.08;57.38;102744.97;1021662;29;1356;-61
2022/01/28 19:01:23;;;;;;;;;;;;;;;15.08;57.13;102742.31;1019483;29;1427;-60
2022/01/28 19:02:13;;;;;;;;;;;;;;;15.08;56.99;102744.13;1021776;29;1549;-60
2022/01/28 19:03:08;;;;;;;;;;;;;;;15.08;57.31;102736.94;1021888;29;1516;-61
2022/01/28 19:03:59;;;;;;;;;;;;;;;15.08;57.45;102742.31;1019485;29;1503;-60
2022/01/28 19:04:49;;;;;;;;;;;;;;;15.09;57.19;102745.84;1020432;29;1521;-61
2022/01/28 19:05:39;;;;;;;;;;;;;;;15.09;57.21;102751.22;1020983;29;1385;-62
2022/01/28 19:06:30;;;;;;;;;;;;;;;15.09;57.60;102756.59;1021778;29;1534;-62
2022/01/28 19:07:21;;;;;;;;;;;;;;;15.08;57.27;102755.72;1020911;29;1491;-61
2022/01/28 19:08:11;;;;;;;;;;;;;;;15.09;57.21;102756.59;1021794;29;1405;-60
2022/01/28 19:09:04;;;;;;;;;;;;;;;15.09;57.55;102767.34;1021626;29;1572;-62
2022/01/28 19:09:54;;;;;;;;;;;;;;;15.08;57.61;102763.78;1020323;29;1510;-61
2022/01/28 19:10:45;;;;;;;;;;;;;;;15.09;57.23;102767.34;1021740;29;1537;-62
2022/01/28 19:11:38;;;;;;;;;;;;;;;15.08;57.67;102758.41;1021423;29;1423;-61
2022/01/28 19:12:30;;;;;;;;;;;;;;;15.08;57.17;102755.72;1019279;29;1373;-62
2022/01/28 19:13:20;;;;;;;;;;;;;;;15.09;57.13;102751.22;1021871;29;1555;-62
2022/01/28 19:14:11;;;;;;;;;;;;;;;15.10;57.15;102758.34;1022103;29;1691;-62
2022/01/28 19:15:01;;;;;;;;;;;;;;;15.10;57.23;102752.97;1021406;29;1551;-62
2022/01/28 19:15:52;;;;;;;;;;;;;;;15.10;57.13;102759.19;1023277;29;1446;-62
2022/01/28 19:16:42;;;;;;;;;;;;;;;15.10;57.19;102761.88;1021258;29;1735;-62
2022/01/28 19:17:33;;;;;;;;;;;;;;;15.11;57.21;102757.38;1021965;28;1424;-61
2022/01/28 19:18:23;;;;;;;;;;;;;;;15.12;57.35;102754.63;1022434;28;1459;-60
2022/01/28 19:19:13;;;;;;;;;;;;;;;15.11;57.17;102757.38;1022373;28;1960;-62
2022/01/28 19:20:04;;;;;;;;;;;;;;;15.11;57.63;102755.56;1021916;29;1472;-62
2022/01/28 19:20:54;;;;;;;;;;;;;;;15.11;57.75;102766.31;1021240;29;1345;-63
2022/01/28 19:21:45;;;;;;;;;;;;;;;15.11;57.86;102758.25;1022512;28;2226;-60
2022/01/28 19:22:35;;;;;;;;;;;;;;;15.13;57.22;102764.41;1021316;29;1337;-62
2022/01/28 19:23:25;;;;;;;;;;;;;;;15.13;57.50;102760.88;1022366;28;1345;-62
2022/01/28 19:24:16;;;;;;;;;;;;;;;15.13;57.58;102760.88;1022228;28;1767;-60
2022/01/28 19:25:06;;;;;;;;;;;;;;;15.13;57.15;102753.66;1022469;28;1531;-62
2022/01/28 19:25:57;;;;;;;;;;;;;;;15.13;57.31;102759.03;1021130;28;1438;-60
2022/01/28 19:26:47;;;;;;;;;;;;;;;15.15;57.22;102756.28;1022569;28;1309;-61
2022/01/28 19:27:38;;;;;;;;;;;;;;;15.16;57.64;102758.00;1022269;28;1362;-61
2022/01/28 19:28:28;;;;;;;;;;;;;;;15.18;56.84;102750.75;1017805;29;1338;-61
2022/01/28 19:29:18;;;;;;;;;;;;;;;15.19;57.08;102747.97;1020639;28;1638;-62
2022/01/28 19:30:09;;;;;;;;;;;;;;;15.21;57.24;102747.91;1021399;29;1518;-62
2022/01/28 19:30:59;;;;;;;;;;;;;;;15.20;57.02;102744.34;1022224;28;1548;-61
2022/01/28 19:31:50;;;;;;;;;;;;;;;15.20;57.04;102743.47;1021594;28;1361;-61
2022/01/28 19:32:40;;;;;;;;;;;;;;;15.21;57.48;102739.84;1022264;28;1630;-61
2022/01/28 19:33:30;;;;;;;;;;;;;;;15.20;57.09;102747.03;1021424;29;1496;-60
2022/01/28 19:34:21;;;;;;;;;;;;;;;15.23;57.07;102741.47;1022223;28;1503;-60
2022/01/28 19:35:12;;;;;;;;;;;;;;;15.23;57.08;102744.16;1021475;28;1599;-60
2022/01/28 19:36:02;;;;;;;;;;;;;;;15.23;56.83;102732.53;1020758;29;1753;-59
2022/01/28 19:36:53;;;;;;;;;;;;;;;15.23;57.36;102736.09;1020646;29;1608;-60
2022/01/28 19:37:43;;;;;;;;;;;;;;;15.24;57.05;102739.66;1020394;29;1640;-60
2022/01/28 19:38:39;;;;;;;;;;;;;;;15.23;56.82;102733.41;1021913;28;1451;-59
2022/01/28 19:39:29;;;;;;;;;;;;;;;15.25;56.92;102730.66;1021099;29;1420;-61
2022/01/28 19:40:21;;;;;;;;;;;;;;;15.25;57.09;102726.13;1022618;28;1647;-59
2022/01/28 19:41:12;;;;;;;;;;;;;;;15.26;56.66;102729.69;1019510;29;1441;-60
2022/01/28 19:42:02;;;;;;;;;;;;;;;15.27;57.00;102729.63;1025432;28;1666;-60
2022/01/28 19:42:53;;;;;;;;;;;;;;;15.29;56.86;102726.84;1020863;29;1569;-60
2022/01/28 19:43:43;;;;;;;;;;;;;;;15.30;56.56;102723.22;1022147;29;1355;-60
2022/01/28 19:44:33;;;;;;;;;;;;;;;15.32;56.41;102720.44;1022540;28;1516;-60
2022/01/28 19:45:24;;;;;;;;;;;;;;;15.35;56.74;102717.59;1023098;28;1461;-60
2022/01/28 19:46:16;;;;;;;;;;;;;;;15.34;56.69;102721.22;1021482;29;1000;-59
2022/01/28 19:47:06;;;;;;;;;;;;;;;15.35;56.38;102722.97;1018079;29;1556;-60
2022/01/28 19:47:58;;;;;;;;;;;;;;;15.36;56.43;102716.66;1022835;29;1578;-61
2022/01/28 19:48:48;;;;;;;;;;;;;;;15.36;56.94;102711.28;1023635;29;1514;-60
2022/01/28 19:49:41;;;;;;;;;;;;;;;15.36;56.30;102701.41;1025320;29;1926;-60
2022/01/28 19:50:31;;;;;;;;;;;;;;;15.39;56.43;102709.28;1025534;29;1479;-60
2022/01/28 19:51:23;;;;;;;;;;;;;;;15.40;56.34;102711.03;1020901;29;1284;-60
2022/01/28 19:52:13;;;;;;;;;;;;;;;15.41;56.30;102710.03;1023343;29;1330;-60
2022/01/28 19:53:04;;;;;;;;;;;;;;;15.44;56.30;102709.88;1020425;29;1345;-60
2022/01/28 19:53:54;;;;;;;;;;;;;;;15.47;56.47;102707.03;1022191;29;1571;-61
2022/01/28 19:54:45;;;;;;;;;;;;;;;15.47;56.31;102704.34;1025571;29;1542;-60
2022/01/28 19:55:35;;;;;;;;;;;;;;;15.48;56.30;102708.75;1025491;29;1404;-61
2022/01/28 19:56:26;;;;;;;;;;;;;;;15.49;56.44;102712.31;1020340;29;1377;-60
2022/01/28 19:57:16;;;;;;;;;;;;;;;15.51;56.25;102705.91;1021096;29;1612;-60
2022/01/28 19:58:07;;;;;;;;;;;;;;;15.50;56.48;102712.22;1026486;28;1503;-60
2022/01/28 19:58:57;;;;;;;;;;;;;;;15.50;56.26;102701.47;1021545;29;1910;-60
2022/01/28 19:59:47;;;;;;;;;;;;;;;15.50;56.12;102714.91;1021117;29;900;-60
2022/01/28 20:00:38;;;;;;;;;;;;;;;15.52;56.17;102706.78;1021074;29;886;-59
2022/01/28 20:01:28;;;;;;;;;;;;;;;15.53;56.32;102693.25;1020475;29;1628;-60
2022/01/28 20:02:19;;;;;;;;;;;;;;;15.56;55.90;102693.13;1018785;29;1415;-59
2022/01/28 20:03:09;;;;;;;;;;;;;;;15.57;55.99;102689.47;1018891;29;1701;-60
2022/01/28 20:04:00;;;;;;;;;;;;;;;15.56;56.56;102682.38;1018619;29;777;-61
2022/01/28 20:04:50;;;;;;;;;;;;;;;15.58;56.50;102677.78;1019340;28;1676;-61
2022/01/28 20:05:40;;;;;;;;;;;;;;;15.60;56.17;102685.72;1020994;29;1537;-61
2022/01/28 20:06:31;;;;;;;;;;;;;;;15.60;56.12;102686.59;1021186;29;1564;-61
2022/01/28 20:07:21;;;;;;;;;;;;;;;15.60;56.50;102673.16;1017501;29;1628;-60
2022/01/28 20:08:12;;;;;;;;;;;;;;;15.60;56.68;102683.03;1018162;29;1510;-61
2022/01/28 20:09:02;;;;;;;;;;;;;;;15.58;56.79;102677.78;1018361;29;1442;-61
2022/01/28 20:09:58;;;;;;;;;;;;;;;15.57;56.74;102676.03;1018555;29;1637;-63
2022/01/28 20:10:48;;;;;;;;;;;;;;;15.56;56.46;102674.31;1020067;29;1577;-60
2022/01/28 20:11:40;;;;;;;;;;;;;;;15.56;56.18;102670.75;1020136;29;1477;-61
2022/01/28 20:12:30;;;;;;;;;;;;;;;15.53;56.32;102666.38;1020977;29;787;-60
2022/01/28 20:13:20;;;;;;;;;;;;;;;15.50;56.61;102663.88;1021130;29;778;-60
2022/01/28 20:14:11;;;;;;;;;;;;;;;15.50;56.53;102669.25;1020890;29;830;-60
2022/01/28 20:15:01;;;;;;;;;;;;;;;15.49;56.94;102669.31;1021039;29;788;-60
2022/01/28 20:15:52;;;;;;;;;;;;;;;15.51;56.77;102672.78;1020538;29;1468;-60
2022/01/28 20:16:42;;;;;;;;;;;;;;;15.53;56.59;102662.84;1019977;29;1510;-61
2022/01/28 20:17:33;;;;;;;;;;;;;;;15.53;56.83;102660.16;1020599;29;1386;-60
2022/01/28 20:18:24;;;;;;;;;;;;;;;15.51;56.42;102662.03;1019400;29;1437;-60
2022/01/28 20:19:14;;;;;;;;;;;;;;;15.50;56.53;102657.63;1020146;29;1890;-60
2022/01/28 20:20:04;;;;;;;;;;;;;;;15.48;56.98;102659.53;1020085;29;1573;-58
2022/01/28 20:20:55;;;;;;;;;;;;;;;15.48;56.92;102665.78;1018453;29;1227;-60
2022/01/28 20:21:46;;;;;;;;;;;;;;;15.47;56.77;102672.09;1021080;29;1459;-60
2022/01/28 20:22:41;;;;;;;;;;;;;;;15.48;56.74;102668.47;1018379;29;1520;-60
2022/01/28 20:23:32;;;;;;;;;;;;;;;15.45;56.72;102668.63;1020592;29;1466;-59
2022/01/28 20:24:22;;;;;;;;;;;;;;;15.46;56.78;102674.88;1019807;29;1449;-60
2022/01/28 20:25:13;;;;;;;;;;;;;;;15.43;57.12;102681.28;1020626;29;1478;-60
2022/01/28 20:26:03;;;;;;;;;;;;;;;15.42;57.19;102679.53;1020839;29;1465;-61
2022/01/28 20:26:53;;;;;;;;;;;;;;;15.41;56.99;102682.31;1017477;29;1511;-60
2022/01/28 20:27:44;;;;;;;;;;;;;;;15.41;56.91;102687.69;1020602;29;1507;-59
2022/01/28 20:28:36;;;;;;;;;;;;;;;15.39;56.89;102681.56;1019049;29;1355;-60
2022/01/28 20:29:26;;;;;;;;;;;;;;;15.38;56.85;102686.06;1020358;29;1590;-60
2022/01/28 20:30:17;;;;;;;;;;;;;;;15.39;57.17;102689.63;1017686;29;1480;-60
2022/01/28 20:31:07;;;;;;;;;;;;;;;15.38;56.82;102690.56;1023695;29;1600;-60
2022/01/28 20:31:57;;;;;;;;;;;;;;;15.35;56.61;102688.03;1024063;29;1492;-62
2022/01/28 20:32:48;;;;;;;;;;;;;;;15.35;56.74;102686.22;1020575;29;1350;-61
2022/01/28 20:33:38;;;;;;;;;;;;;;;15.35;56.65;102686.22;1020893;29;1495;-60
2022/01/28 20:34:29;;;;;;;;;;;;;;;15.36;56.74;102685.28;1020879;29;1286;-60
2022/01/28 20:35:23;;;;;;;;;;;;;;;15.37;56.86;102673.59;1020887;29;1543;-60
2022/01/28 20:36:13;;;;;;;;;;;;;;;15.36;56.32;102685.28;1020122;29;1496;-60
2022/01/28 20:37:04;;;;;;;;;;;;;;;15.36;56.52;102679.91;1019777;29;1376;-61
2022/01/28 20:37:54;;;;;;;;;;;;;;;15.36;56.84;102685.28;1019460;29;1692;-60
2022/01/28 20:38:45;;;;;;;;;;;;;;;15.38;56.37;102683.38;1018959;29;1681;-60
2022/01/28 20:39:36;;;;;;;;;;;;;;;15.37;56.65;102680.78;1020549;29;1500;-60
2022/01/28 20:40:26;;;;;;;;;;;;;;;15.37;56.83;102684.31;1019903;29;1406;-61
2022/01/28 20:41:17;;;;;;;;;;;;;;;15.36;56.37;102685.28;1018697;29;1298;-60
2022/01/28 20:42:08;;;;;;;;;;;;;;;15.35;56.58;102685.34;1019032;29;1573;-60
2022/01/28 20:42:58;;;;;;;;;;;;;;;15.32;56.90;102675.66;1018885;29;1412;-62
2022/01/28 20:43:49;;;;;;;;;;;;;;;15.32;56.35;102674.78;1020127;29;1766;-61